Season 21
 
 
 

TWL – Player Statistics
 


Seasons: 1 - 2 - 3 - 4 - 5 - 6 - 7 - 8 - 9 - 10 - 11 - 12 - 13 - 14 - 15 - 16 - 17 - 18 - 19 - 20 - 21

Leagues: All Leagues - TWLD - TWLJ - TWLB

Ships: All ships - Warbird - Javelin - Spider - Terrier - Lancaster - Shark

Player Squad G R W L AVK HW AVD AVP RT LO SUB TP
M_M God Revenge 11 11 985 536 92 116 50 14318 193201 1 0 5:28:24
squallFF8 Revenge 10 10 872 550 87 114 55 13751 146122 5 0 5:17:29
glavitik Revenge 10 10 973 600 97 119 60 14539 188137 1 1 5:09:12
sarger Pandora 9 9 908 613 101 122 68 15678 147928 0 0 5:07:23
Spezza Pandora 9 9 934 481 104 159 53 16903 193164 0 0 4:59:08
Leitz Pandora 9 9 952 617 106 151 69 16407 200620 2 0 4:58:29
hellkite Revenge 10 10 858 500 88 120 58 13979 160035 1 0 4:39:45
Kate Upton Pandora 8 8 690 444 86 119 56 14992 120517 0 0 4:24:01
Trasher Penetrate 8 8 763 357 95 125 45 15293 172512 0 0 4:16:49
AcidBomber Penetrate 8 8 765 382 96 130 48 15259 157611 0 0 4:15:43
Ease Pandora 8 8 848 470 106 147 59 17466 195718 0 0 4:13:20
skatarius Revenge 8 8 638 437 80 109 55 13396 100950 0 0 3:57:06
iNfRaReD Cobra 9 9 668 481 76 110 50 13049 98062 0 0 3:47:57
zeebu Sweet 7 7 621 382 89 118 55 12596 104807 0 0 3:36:33
Zizzo Dudgeon 7 7 578 450 99 119 77 24602 64750 3 1 3:25:51
Ayn Pandora 6 6 653 432 109 127 72 17264 130120 2 0 3:24:10
Murder Cobra 7 7 541 379 76 94 58 10494 64843 5 0 3:22:44
OGRON Sage 7 7 518 344 75 109 48 13427 80092 0 0 3:15:42
gilder Dudgeon 7 7 429 304 63 79 47 10880 44906 0 0 3:15:26
zhou Penetrate 6 6 483 334 81 109 56 11920 61673 0 1 3:09:18
NL>Trigger Sage 7 7 470 346 71 113 55 10556 51310 1 1 3:08:19
dreamwin Dudgeon 6 6 579 412 102 116 72 24091 78544 0 0 3:01:41
Blahhy. Penetrate 6 6 555 355 93 121 60 14343 102584 1 0 2:58:22
Ra Sweet 6 6 497 329 83 107 55 10830 70061 1 0 2:56:26
Sakke Dudgeon 6 6 372 295 65 97 67 12074 36000 0 0 2:42:47
Eelam Sweet 6 6 415 305 64 106 56 15606 47157 7 0 2:42:38
KAWRAE Sage 5 5 453 273 91 98 55 12682 80105 0 0 2:41:16
Engineers Sweet 5 5 385 318 77 95 64 10391 30702 0 0 2:38:45
megaman89 Sweet 5 5 486 283 97 109 57 12698 84366 0 0 2:37:20
Kian Revenge 5 5 541 397 108 148 79 14589 83082 0 0 2:37:14
CJW Spastic 6 6 336 341 64 91 72 12168 14980 0 0 2:36:48
Melanoma Dudgeon 5 5 403 358 81 116 72 12520 38457 0 1 2:34:56
SPRAINED Spastic 6 6 334 279 56 96 48 7063 25372 0 0 2:34:30
sphinx Sweet 5 5 451 252 90 102 50 12512 77542 0 0 2:33:46
renzi Cobra 5 5 390 329 78 107 66 10293 32227 3 0 2:32:36
necromotic Cobra 6 6 425 298 74 110 53 10969 69054 4 1 2:28:17
Solace Penetrate 5 5 461 273 92 143 55 13200 78790 0 0 2:24:56
SPIDERHATE Spastic 5 5 372 296 76 100 59 9544 34161 1 0 2:20:57
RUCCI Spastic 5 5 357 218 72 99 44 10109 57404 0 0 2:19:04
CUBANO Sweet 4 4 487 247 122 133 62 17170 127287 0 0 2:08:14
Undercut Pandora 4 4 383 224 96 104 56 14867 72455 1 0 2:04:25
fLaReD Cobra 5 5 279 176 58 92 36 10705 31413 2 1 1:57:16
TurBaN Cobra 5 5 276 215 65 81 43 9626 44012 0 0 1:56:06
JAMAL Spastic 4 4 380 183 97 138 46 12973 94668 0 0 1:53:38
MEAN Gene Revenge 4 4 336 183 84 107 46 14702 66799 0 0 1:52:23
superstar-PROkiller Sage 4 4 266 219 71 100 83 9552 25390 0 0 1:42:14
Jones Sweet 3 3 281 181 94 97 60 13878 45478 0 0 1:41:05
kess Sage 3 3 276 183 92 100 61 12969 34091 0 0 1:39:43
tj hazuki Spastic 4 4 222 210 56 87 53 7146 14693 1 0 1:38:40
locus Pandora 4 4 289 171 72 99 43 17112 55464 0 0 1:37:21
saetep Cobra 3 3 223 172 88 92 57 11837 43950 0 0 1:34:05
royst Penetrate 3 3 270 199 90 113 66 12572 37917 0 0 1:30:38
Sulla Spastic 3 3 143 117 48 73 39 6947 10297 5 1 1:26:24
Minotar Penetrate 3 3 258 173 86 101 58 13060 40071 0 0 1:25:38
temporary Penetrate 3 3 223 152 74 106 51 10578 40052 0 1 1:20:41
TheWadoRooster Spastic 3 3 205 156 68 91 52 8907 19920 0 0 1:20:39
vys Raid 4 4 151 151 45 49 52 5464 3235 6 0 1:16:35
Gazo Sage 3 3 224 151 75 116 50 11267 38917 2 1 1:13:28
Zyclon Sage 3 3 154 122 62 88 50 8635 12556 0 0 1:09:04
wbm Sage 2 2 212 148 106 123 74 14694 34068 0 0 1:08:56
Stayon Sage 2 2 236 101 118 127 51 14500 52089 0 0 1:07:36
icnhstlk Penetrate 3 3 246 119 93 144 41 15605 71126 0 0 1:06:34
humid Cobra 3 3 138 100 40 81 58 9351 18100 2 0 1:01:57
nicholas Dudgeon 3 3 130 105 34 75 28 5566 7092 0 0 1:01:44
maketso Dudgeon 2 2 169 120 90 95 67 11330 17563 0 0 1:01:37
cremation Sweet 2 2 194 115 97 99 58 14171 36918 1 0 1:01:28
Ricko Cobra 2 2 141 122 71 83 61 8988 8270 0 0 0:58:09
poxy Raid 2 2 136 107 68 75 54 8399 14985 0 0 0:57:01
euforia Sage 2 2 85 90 46 78 45 8414 3200 1 0 0:52:03
Havu Sage 2 2 109 98 59 95 48 15581 12171 0 0 0:49:22
Pyroblast Spastic 2 2 92 95 46 55 48 4087 1940 0 0 0:47:39
Da1andonly Sage 2 2 104 60 59 104 34 10434 20190 0 0 0:38:28
torcher Cobra 1 1 56 65 98 56 65 13848 17780 0 0 0:34:48
menelvagor Revenge 1 1 79 37 79 74 39 27880 16852 0 0 0:34:21
WHIMP Sage 1 1 84 52 84 84 52 12441 10365 0 0 0:34:16
trance Revenge 1 1 101 63 101 101 63 16101 22760 2 0 0:33:38
LF Sweet 1 1 100 50 100 100 50 15548 22264 0 0 0:31:07
spikey Sage 1 1 102 82 102 102 82 17343 15296 0 0 0:31:01
Shock Therapy Raid 2 2 52 110 27 32 56 1614 -1582 1 0 0:29:31
fit of rage Penetrate 1 1 82 64 82 82 64 13783 10563 0 0 0:28:28
plob#f Raid 2 2 64 64 37 41 41 1204 89 0 0 0:28:23
tim Pandora 1 1 90 41 90 90 41 16576 22311 0 0 0:27:39
hulk Sweet 1 1 57 61 57 57 61 5466 1101 0 0 0:27:23
Krage Penetrate 1 1 52 40 52 52 40 11456 4408 0 0 0:26:49
SleaZy Cobra 1 1 66 44 66 66 44 4796 3758 0 0 0:26:17
Best Raid 2 2 63 42 49 63 43 2298 1938 1 0 0:26:13
Micke Dudgeon 1 1 76 67 76 76 67 9467 4953 0 0 0:26:10
Cape Pandora 1 1 59 44 76 59 46 11633 3822 0 0 0:25:42
Public Assassin Spastic 1 1 98 56 98 98 56 14309 19540 0 0 0:24:04
Dsin Pandora 1 1 63 25 63 63 25 15071 14998 0 0 0:22:54
Marge Sweet 1 1 56 58 56 56 58 5056 1777 1 0 0:21:19
Steep Raid 1 1 52 49 52 52 49 3504 1268 0 0 0:21:11
Lionheart Cobra 1 1 74 17 74 74 17 15204 24770 0 0 0:21:08
Cig Revenge 1 1 37 30 37 37 30 9479 3480 0 0 0:21:01
Lifter Raid 1 1 51 41 51 51 41 2364 982 0 0 0:20:34
skyforger Dudgeon 1 1 26 39 26 26 39 4989 -544 0 1 0:20:04
Primordial Raid 1 1 28 40 28 28 41 1179 -68 0 0 0:20:01
Prox Spastic 1 1 49 39 49 49 39 2482 1460 1 0 0:20:00
Children Pandora 1 1 56 26 70 56 28 16472 10638 0 0 0:18:55
SwimKid Raid 1 1 41 44 42 41 46 2291 357 0 0 0:16:17
Matter Raid 1 1 15 21 18 13 77 1324 -27 0 0 0:13:38
Cross Cobra 1 1 33 28 53 33 28 10917 9205 0 0 0:12:54
Reaver Raid 1 1 31 27 31 31 30 1882 322 0 1 0:12:21
drug Raid 1 1 17 16 17 17 16 1148 260 0 1 0:11:03
Executed Spastic 1 1 13 15 13 13 15 686 71 1 1 0:10:11
rodney Revenge 1 1 42 25 42 42 25 4697 2248 0 0 0:09:54
Saving Raid 1 1 7 20 10 7 23 157 -13 0 0 0:09:23
Burnt Sweet 1 1 21 12 51 21 20 8691 1104 0 0 0:06:09
Stylez Raid 1 1 18 12 53 18 48 7449 72 0 0 0:05:46
dsb Spastic 1 1 0 0 1 0 68 410 0 0 0 0:02:17
Dak Sweet 1 1 2 3 2 2 3 3010 33 0 1 0:01:10
Pure_Luck Spastic 1 1 0 0 39 0 5 9929 0 0 0 0:00:29
nokkonen Dudgeon 1 1 0 0 8 0 107 2657 0 0 0 0:00:05
bon Raid 1 1 0 0 27 0 33 595 0 1 0 0:00:05
Dwopple Cobra 1 1 0 0 15 0 98 4028 0 1 0 0:00:02

 
 

Central: Pacific: Eastern:
London: New Zealand: Australia:
Helsinki: Brazil: Netherlands: